Time;durP1;ratioP1;P1;durP2;ratioP2;P2;SDS_P1;SDS_P2;PMS_P1;PMS_P2;Temp;Humidity;BMP_temperature;BMP_pressure;BME280_temperature;BME280_humidity;BME280_pressure;Samples;Min_cycle;Max_cycle;Signal;HPM_P1;HPM_P2
2022/01/19 00:01:17;;;;;;;;;;;2.80;57.50;;;;;;5075703;28;19905;-69
2022/01/19 00:03:42;;;;;;;;;;;2.80;57.50;;;;;;5057768;28;19905;-69
2022/01/19 00:06:08;;;;;;;;;;;2.80;57.60;;;;;;5057632;28;19958;-69
2022/01/19 00:08:34;;;;;;;;;;;2.80;57.60;;;;;;5057589;28;19911;-68
2022/01/19 00:11:00;;;;;;;;;;;2.80;57.70;;;;;;5057135;28;19908;-68
2022/01/19 00:13:26;;;;;;;;;;;2.80;57.60;;;;;;5075493;28;19974;-69
2022/01/19 00:15:52;;;;;;;;;;;2.70;57.60;;;;;;5057467;28;19905;-69
2022/01/19 00:18:18;;;;;;;;;;;2.80;57.60;;;;;;5055763;28;19920;-69
2022/01/19 00:20:44;;;;;;;;;;;2.70;57.60;;;;;;5075092;28;20238;-69
2022/01/19 00:23:10;;;;;;;;;;;2.70;57.60;;;;;;5057281;28;19905;-68
2022/01/19 00:25:37;;;;;;;;;;;2.70;57.60;;;;;;5057319;28;19912;-69
2022/01/19 00:28:03;;;;;;;;;;;2.70;57.60;;;;;;5075003;28;19947;-69
2022/01/19 00:30:29;;;;;;;;;;;2.70;57.60;;;;;;5057079;28;19908;-69
2022/01/19 00:32:54;;;;;;;;;;;2.70;57.70;;;;;;5075380;28;19916;-69
2022/01/19 00:35:20;;;;;;;;;;;2.70;57.70;;;;;;5056602;28;19912;-69
2022/01/19 00:37:46;;;;;;;;;;;2.60;57.70;;;;;;5056983;28;20263;-68
2022/01/19 00:40:14;;;;;;;;;;;2.60;57.70;;;;;;5075276;28;19908;-69
2022/01/19 00:42:40;;;;;;;;;;;2.60;57.70;;;;;;5074603;28;20356;-68
2022/01/19 00:45:06;;;;;;;;;;;2.60;57.70;;;;;;5074452;28;19909;-69
2022/01/19 00:47:32;;;;;;;;;;;2.60;57.70;;;;;;5056912;28;19911;-69
2022/01/19 00:49:58;;;;;;;;;;;2.60;58.30;;;;;;5074652;28;19908;-70
2022/01/19 00:52:23;;;;;;;;;;;2.60;57.70;;;;;;5057034;28;19916;-69
2022/01/19 00:54:49;;;;;;;;;;;2.60;57.70;;;;;;5090180;28;19995;-69
2022/01/19 00:57:15;;;;;;;;;;;2.50;57.70;;;;;;5074477;28;19908;-68
2022/01/19 00:59:41;;;;;;;;;;;2.50;57.70;;;;;;5074369;28;20306;-69
2022/01/19 01:02:06;;;;;;;;;;;2.50;57.70;;;;;;5056631;28;19912;-68
2022/01/19 01:04:32;;;;;;;;;;;2.50;57.70;;;;;;5056590;28;20233;-70
2022/01/19 01:06:59;;;;;;;;;;;2.50;57.80;;;;;;5056442;28;20352;-68
2022/01/19 01:09:24;;;;;;;;;;;2.50;57.80;;;;;;5074315;28;19904;-69
2022/01/19 01:19:58;;;;;;;;;;;2.50;57.90;;;;;;5074247;28;19970;-69
2022/01/19 01:22:24;;;;;;;;;;;2.40;57.90;;;;;;5073809;28;19912;-69
2022/01/19 01:24:50;;;;;;;;;;;2.40;57.90;;;;;;5056139;28;20078;-69
2022/01/19 01:27:15;;;;;;;;;;;2.40;57.90;;;;;;5089560;28;19909;-69
2022/01/19 01:29:41;;;;;;;;;;;2.40;57.90;;;;;;5073206;28;19909;-69
2022/01/19 01:32:07;;;;;;;;;;;2.40;58.00;;;;;;5074274;28;19908;-69
2022/01/19 01:34:33;;;;;;;;;;;2.40;58.00;;;;;;5055763;28;20390;-69
2022/01/19 01:36:59;;;;;;;;;;;2.40;58.00;;;;;;5073808;28;19905;-69
2022/01/19 01:39:25;;;;;;;;;;;2.40;58.00;;;;;;5055764;28;19954;-69
2022/01/19 01:41:51;;;;;;;;;;;2.40;58.00;;;;;;5089310;28;19955;-68
2022/01/19 01:44:16;;;;;;;;;;;2.30;58.00;;;;;;5050225;28;20303;-69
2022/01/19 01:46:49;;;;;;;;;;;2.30;58.00;;;;;;5033458;28;19940;-69
2022/01/19 01:53:26;;;;;;;;;;;2.30;58.10;;;;;;5033601;28;19909;-69
2022/01/19 01:54:45;;;;;;;;;;;2.30;58.10;;;;;;5055016;28;19962;-69
2022/01/19 01:57:11;;;;;;;;;;;2.30;58.20;;;;;;5089023;28;19908;-70
2022/01/19 01:59:36;;;;;;;;;;;2.30;58.20;;;;;;5073439;28;20303;-68
2022/01/19 02:02:02;;;;;;;;;;;2.30;58.20;;;;;;5088860;28;19995;-70
2022/01/19 02:04:30;;;;;;;;;;;2.30;58.20;;;;;;5073070;28;19946;-69
2022/01/19 02:09:41;;;;;;;;;;;2.20;58.20;;;;;;5052960;28;19962;-69
2022/01/19 02:25:44;;;;;;;;;;;2.20;58.40;;;;;;5072844;28;20009;-68
2022/01/19 02:41:41;;;;;;;;;;;2.10;58.40;;;;;;5072101;28;19970;-68
2022/01/19 02:44:13;;;;;;;;;;;2.10;58.50;;;;;;5072439;28;19908;-68
2022/01/19 02:49:23;;;;;;;;;;;2.10;58.60;;;;;;5072659;28;20034;-68
2022/01/19 02:51:50;;;;;;;;;;;2.10;58.60;;;;;;5072660;28;20003;-69
2022/01/19 02:54:18;;;;;;;;;;;2.00;58.60;;;;;;5035851;28;19909;-69
2022/01/19 02:56:48;;;;;;;;;;;2.00;58.70;;;;;;5052636;28;20330;-69
2022/01/19 02:59:23;;;;;;;;;;;2.00;58.70;;;;;;5068094;28;19905;-69
2022/01/19 03:09:46;;;;;;;;;;;2.00;58.90;;;;;;5052320;28;19913;-69
2022/01/19 03:12:12;;;;;;;;;;;2.00;58.90;;;;;;5052299;28;19915;-68
2022/01/19 03:14:38;;;;;;;;;;;2.00;58.90;;;;;;5034619;28;19983;-69
2022/01/19 03:17:05;;;;;;;;;;;2.00;58.90;;;;;;5044182;28;19905;-69
2022/01/19 03:19:32;;;;;;;;;;;2.00;58.90;;;;;;5048790;28;19921;-69
2022/01/19 03:21:58;;;;;;;;;;;2.00;58.90;;;;;;5072254;28;19908;-69
2022/01/19 03:24:24;;;;;;;;;;;1.90;58.90;;;;;;5054354;28;19905;-69
2022/01/19 03:26:50;;;;;;;;;;;1.90;58.90;;;;;;5054414;28;19904;-69
2022/01/19 03:29:15;;;;;;;;;;;1.90;58.90;;;;;;5054322;28;19908;-69
2022/01/19 03:31:41;;;;;;;;;;;1.90;59.00;;;;;;5072259;28;19913;-69
2022/01/19 03:34:07;;;;;;;;;;;1.90;59.00;;;;;;5054335;28;20046;-70
2022/01/19 03:36:33;;;;;;;;;;;1.90;58.90;;;;;;5071782;28;19923;-69
2022/01/19 03:38:59;;;;;;;;;;;1.90;58.90;;;;;;5072108;28;19905;-69
2022/01/19 03:41:24;;;;;;;;;;;1.90;58.90;;;;;;5071786;28;19909;-69
2022/01/19 03:43:50;;;;;;;;;;;1.90;58.90;;;;;;5053660;28;19904;-69
2022/01/19 03:46:16;;;;;;;;;;;1.90;58.90;;;;;;5054126;28;19963;-69
2022/01/19 03:48:54;;;;;;;;;;;1.90;58.90;;;;;;5071972;28;19993;-68
2022/01/19 03:51:20;;;;;;;;;;;1.90;58.90;;;;;;5072055;28;19959;-69
2022/01/19 03:53:46;;;;;;;;;;;1.90;58.90;;;;;;5056821;28;20427;-68
2022/01/19 03:56:11;;;;;;;;;;;1.90;59.00;;;;;;5057734;28;19946;-68
2022/01/19 03:58:37;;;;;;;;;;;1.90;59.00;;;;;;5075729;28;19999;-68
2022/01/19 04:01:04;;;;;;;;;;;1.90;59.50;;;;;;5057545;28;19983;-69
2022/01/19 04:06:21;;;;;;;;;;;1.90;59.00;;;;;;5075429;28;20267;-68
2022/01/19 04:08:47;;;;;;;;;;;1.90;59.00;;;;;;5075623;28;19948;-69
2022/01/19 04:11:15;;;;;;;;;;;1.90;59.00;;;;;;5061964;28;19962;-69
2022/01/19 04:16:25;;;;;;;;;;;2.00;59.70;;;;;;5055231;28;19916;-69
2022/01/19 04:18:58;;;;;;;;;;;1.90;59.10;;;;;;5054883;28;19929;-69
2022/01/19 04:21:24;;;;;;;;;;;1.90;59.10;;;;;;5055519;28;19915;-69
2022/01/19 04:23:50;;;;;;;;;;;1.90;59.10;;;;;;5055224;28;19904;-69
2022/01/19 04:26:15;;;;;;;;;;;2.00;59.20;;;;;;5055173;28;20047;-69
2022/01/19 04:28:41;;;;;;;;;;;2.00;59.20;;;;;;5055177;28;19974;-69
2022/01/19 04:31:06;;;;;;;;;;;2.00;59.20;;;;;;5055075;28;19932;-68
2022/01/19 04:33:32;;;;;;;;;;;2.00;59.20;;;;;;5053739;28;19924;-69
2022/01/19 04:36:19;;;;;;;;;;;2.00;59.20;;;;;;5055020;28;19905;-68
2022/01/19 04:44:31;;;;;;;;;;;2.00;59.20;;;;;;5054524;28;19912;-70
2022/01/19 05:05:45;;;;;;;;;;;2.00;59.30;;;;;;5073921;28;19905;-69
2022/01/19 05:08:19;;;;;;;;;;;2.00;59.30;;;;;;5074464;28;19908;-69
2022/01/19 05:13:37;;;;;;;;;;;2.00;59.30;;;;;;5054286;28;19963;-69
2022/01/19 05:16:02;;;;;;;;;;;2.00;59.30;;;;;;5054031;28;19951;-70
2022/01/19 05:18:28;;;;;;;;;;;2.00;59.90;;;;;;5036090;28;19929;-69
2022/01/19 05:20:54;;;;;;;;;;;2.00;59.30;;;;;;5054231;28;19904;-69
2022/01/19 05:23:20;;;;;;;;;;;2.00;59.30;;;;;;5053845;28;19904;-69
2022/01/19 05:25:46;;;;;;;;;;;2.00;59.30;;;;;;5053688;28;19912;-68
2022/01/19 05:28:12;;;;;;;;;;;2.00;59.30;;;;;;5054012;28;19912;-69
2022/01/19 05:30:37;;;;;;;;;;;2.00;59.30;;;;;;5035906;28;19909;-69
2022/01/19 05:33:03;;;;;;;;;;;2.00;59.30;;;;;;5053834;28;19916;-69
2022/01/19 05:35:30;;;;;;;;;;;2.00;59.30;;;;;;5053638;28;19905;-69
2022/01/19 05:37:56;;;;;;;;;;;1.90;59.30;;;;;;5053867;28;19971;-69
2022/01/19 05:40:21;;;;;;;;;;;1.90;59.30;;;;;;5069018;28;19909;-68
2022/01/19 05:42:49;;;;;;;;;;;2.00;59.40;;;;;;5035813;28;19914;-69
2022/01/19 05:45:14;;;;;;;;;;;1.90;59.30;;;;;;5053377;28;19991;-69
2022/01/19 05:47:40;;;;;;;;;;;2.00;59.40;;;;;;5052641;28;20366;-68
2022/01/19 05:50:06;;;;;;;;;;;1.90;59.30;;;;;;5072067;28;19990;-69
2022/01/19 05:52:31;;;;;;;;;;;2.00;59.40;;;;;;5055565;28;19912;-68
2022/01/19 05:54:57;;;;;;;;;;;2.00;59.40;;;;;;5073279;28;20030;-69
2022/01/19 05:57:23;;;;;;;;;;;2.00;59.40;;;;;;5073346;28;19935;-69
2022/01/19 05:59:48;;;;;;;;;;;2.00;59.50;;;;;;5073117;28;19904;-69
2022/01/19 06:02:16;;;;;;;;;;;2.00;59.50;;;;;;5073368;28;19935;-69
2022/01/19 06:04:42;;;;;;;;;;;2.00;59.50;;;;;;5073098;28;19909;-68
2022/01/19 06:07:08;;;;;;;;;;;2.00;59.50;;;;;;5055344;28;20374;-68
2022/01/19 06:09:48;;;;;;;;;;;2.00;59.50;;;;;;5073132;28;19904;-69
2022/01/19 06:12:14;;;;;;;;;;;2.00;59.50;;;;;;5051975;28;19919;-68
2022/01/19 06:14:41;;;;;;;;;;;2.00;59.50;;;;;;5034997;28;19999;-69
2022/01/19 06:17:09;;;;;;;;;;;2.00;59.50;;;;;;5034256;28;19959;-69
2022/01/19 06:19:34;;;;;;;;;;;2.00;59.50;;;;;;5034706;28;19921;-69
2022/01/19 06:22:00;;;;;;;;;;;2.00;59.50;;;;;;5035035;28;19912;-69
2022/01/19 06:24:27;;;;;;;;;;;2.00;59.50;;;;;;5052954;28;20341;-69
2022/01/19 06:26:53;;;;;;;;;;;2.00;59.50;;;;;;5052993;28;19905;-69
2022/01/19 06:29:19;;;;;;;;;;;2.00;59.50;;;;;;5052746;28;20041;-68
2022/01/19 06:31:44;;;;;;;;;;;2.00;59.60;;;;;;5052455;28;19913;-69
2022/01/19 06:34:10;;;;;;;;;;;2.00;59.60;;;;;;5052561;28;19909;-69
2022/01/19 06:36:36;;;;;;;;;;;2.00;59.60;;;;;;5068110;28;19905;-69
2022/01/19 06:39:02;;;;;;;;;;;2.00;59.70;;;;;;5052453;28;19905;-69
2022/01/19 06:41:28;;;;;;;;;;;2.00;59.60;;;;;;5052731;28;19908;-69
2022/01/19 06:43:53;;;;;;;;;;;2.00;59.70;;;;;;5034884;28;20337;-69
2022/01/19 06:46:19;;;;;;;;;;;2.00;59.70;;;;;;5068131;28;19909;-69
2022/01/19 06:48:45;;;;;;;;;;;2.10;59.70;;;;;;5071736;28;19913;-68
2022/01/19 06:51:10;;;;;;;;;;;2.10;59.70;;;;;;5072702;28;20410;-69
2022/01/19 06:53:36;;;;;;;;;;;2.10;59.70;;;;;;5054997;28;20359;-68
2022/01/19 06:56:02;;;;;;;;;;;2.10;59.70;;;;;;5054680;28;20348;-69
2022/01/19 06:58:28;;;;;;;;;;;2.10;59.70;;;;;;5053981;28;19927;-68
2022/01/19 07:00:54;;;;;;;;;;;2.10;59.80;;;;;;5072715;28;19911;-69
2022/01/19 07:03:20;;;;;;;;;;;2.10;59.80;;;;;;5072678;28;19927;-69
2022/01/19 07:05:46;;;;;;;;;;;2.20;59.90;;;;;;5073542;28;20317;-68
2022/01/19 07:08:12;;;;;;;;;;;2.20;59.90;;;;;;5073465;28;20349;-69
2022/01/19 07:10:40;;;;;;;;;;;2.20;59.90;;;;;;5055306;28;20050;-69
2022/01/19 07:13:06;;;;;;;;;;;2.20;60.00;;;;;;5055475;28;19909;-69
2022/01/19 07:15:32;;;;;;;;;;;2.30;60.00;;;;;;5055421;28;19912;-68
2022/01/19 07:17:58;;;;;;;;;;;2.30;60.10;;;;;;5073236;28;19961;-68
2022/01/19 07:20:24;;;;;;;;;;;2.30;60.10;;;;;;5055370;28;19908;-68
2022/01/19 07:22:50;;;;;;;;;;;2.40;60.10;;;;;;5073223;28;19958;-68
2022/01/19 07:25:16;;;;;;;;;;;2.40;60.20;;;;;;5055144;28;19915;-68
2022/01/19 07:27:42;;;;;;;;;;;2.50;60.30;;;;;;5089717;28;19916;-68
2022/01/19 07:30:08;;;;;;;;;;;2.50;60.30;;;;;;5076963;28;20122;-68
2022/01/19 07:32:35;;;;;;;;;;;2.60;60.60;;;;;;5077155;28;19908;-68
2022/01/19 07:35:04;;;;;;;;;;;2.60;60.60;;;;;;5092632;28;19926;-68
2022/01/19 07:37:30;;;;;;;;;;;2.70;60.70;;;;;;5058824;28;19904;-68
2022/01/19 07:39:57;;;;;;;;;;;2.70;60.70;;;;;;5058944;28;19934;-68
2022/01/19 07:42:23;;;;;;;;;;;2.80;60.80;;;;;;5076810;28;19904;-69
2022/01/19 07:44:49;;;;;;;;;;;2.80;60.80;;;;;;5092372;28;19904;-68
2022/01/19 07:47:15;;;;;;;;;;;2.90;60.80;;;;;;5076568;28;19950;-67
2022/01/19 07:49:40;;;;;;;;;;;3.00;60.80;;;;;;5058529;28;20009;-68
2022/01/19 07:52:06;;;;;;;;;;;3.00;60.70;;;;;;5076718;28;19915;-69
2022/01/19 07:54:32;;;;;;;;;;;3.00;60.60;;;;;;5077068;28;19904;-68
2022/01/19 07:56:57;;;;;;;;;;;3.10;60.70;;;;;;5092184;28;20252;-68
2022/01/19 07:59:23;;;;;;;;;;;3.10;60.60;;;;;;5076275;28;19943;-68
2022/01/19 08:01:49;;;;;;;;;;;3.20;60.70;;;;;;5076050;28;19904;-68
2022/01/19 08:04:15;;;;;;;;;;;3.30;60.60;;;;;;5058170;28;19909;-68
2022/01/19 08:06:41;;;;;;;;;;;3.30;60.60;;;;;;5091613;28;20247;-69
2022/01/19 08:09:07;;;;;;;;;;;3.30;60.50;;;;;;5076233;28;19931;-69
2022/01/19 08:11:33;;;;;;;;;;;3.40;60.50;;;;;;5076415;28;19955;-69
2022/01/19 08:13:58;;;;;;;;;;;3.40;60.30;;;;;;5076033;28;19912;-69
2022/01/19 08:16:24;;;;;;;;;;;3.40;60.20;;;;;;5076298;28;19909;-69
2022/01/19 08:18:50;;;;;;;;;;;3.50;60.30;;;;;;5067106;28;20015;-68
2022/01/19 08:21:15;;;;;;;;;;;3.50;60.10;;;;;;5055946;28;19909;-68
2022/01/19 08:23:41;;;;;;;;;;;3.50;60.00;;;;;;5038193;28;19963;-69
2022/01/19 08:26:07;;;;;;;;;;;3.60;59.90;;;;;;5038376;28;20359;-69
2022/01/19 08:28:33;;;;;;;;;;;3.60;59.90;;;;;;5038428;28;19904;-69
2022/01/19 08:30:58;;;;;;;;;;;3.60;59.80;;;;;;5055927;28;19915;-69
2022/01/19 08:33:24;;;;;;;;;;;3.60;59.80;;;;;;5037808;28;20003;-69
2022/01/19 08:35:51;;;;;;;;;;;3.70;59.80;;;;;;5055509;28;19905;-69
2022/01/19 08:38:17;;;;;;;;;;;3.70;59.70;;;;;;5055451;28;20027;-69
2022/01/19 08:40:43;;;;;;;;;;;3.70;59.60;;;;;;5036988;28;20344;-69
2022/01/19 08:43:08;;;;;;;;;;;3.80;59.50;;;;;;5055258;28;19904;-69
2022/01/19 08:45:35;;;;;;;;;;;3.80;59.50;;;;;;5037552;28;19909;-69
2022/01/19 08:48:01;;;;;;;;;;;3.80;59.50;;;;;;5037659;28;19904;-69
2022/01/19 08:50:27;;;;;;;;;;;3.80;59.40;;;;;;5055555;28;19935;-69
2022/01/19 08:52:52;;;;;;;;;;;3.90;59.40;;;;;;5055544;28;19912;-68
2022/01/19 08:55:18;;;;;;;;;;;3.90;59.40;;;;;;5055337;28;19928;-68
2022/01/19 08:57:46;;;;;;;;;;;4.00;59.30;;;;;;5055016;28;19905;-68
2022/01/19 09:00:14;;;;;;;;;;;4.00;59.20;;;;;;5055046;28;19905;-67
2022/01/19 09:02:39;;;;;;;;;;;4.00;59.20;;;;;;5056573;28;19980;-68
2022/01/19 09:05:06;;;;;;;;;;;4.00;59.10;;;;;;5037553;28;20370;-68
2022/01/19 09:07:31;;;;;;;;;;;4.10;59.10;;;;;;5037320;28;20272;-69
2022/01/19 09:09:57;;;;;;;;;;;4.20;59.20;;;;;;5054741;28;19909;-68
2022/01/19 09:12:23;;;;;;;;;;;4.20;59.20;;;;;;5054885;28;19908;-68
2022/01/19 09:14:49;;;;;;;;;;;4.20;59.10;;;;;;5055204;28;19905;-68
2022/01/19 09:17:15;;;;;;;;;;;4.30;59.60;;;;;;5054921;28;19913;-68
2022/01/19 09:19:40;;;;;;;;;;;4.30;58.90;;;;;;5070653;28;19921;-68
2022/01/19 09:22:07;;;;;;;;;;;4.40;58.80;;;;;;5074664;28;20002;-69
2022/01/19 09:24:34;;;;;;;;;;;4.50;58.80;;;;;;5074728;28;19971;-68
2022/01/19 09:27:00;;;;;;;;;;;4.50;58.70;;;;;;5090110;28;19904;-69
2022/01/19 09:29:26;;;;;;;;;;;4.60;58.70;;;;;;5056602;28;20365;-68
2022/01/19 09:31:54;;;;;;;;;;;4.70;58.60;;;;;;5074554;28;19913;-67
2022/01/19 09:34:21;;;;;;;;;;;4.70;58.50;;;;;;5056631;28;19911;-68
2022/01/19 09:36:48;;;;;;;;;;;4.80;58.50;;;;;;5090253;28;20320;-68
2022/01/19 09:39:18;;;;;;;;;;;4.90;58.50;;;;;;5074704;28;19915;-68
2022/01/19 09:41:46;;;;;;;;;;;4.90;58.30;;;;;;5074634;28;19911;-68
2022/01/19 09:44:12;;;;;;;;;;;4.90;58.10;;;;;;5074220;28;19912;-68
2022/01/19 09:46:38;;;;;;;;;;;5.00;58.00;;;;;;5074449;28;19905;-68
2022/01/19 09:49:05;;;;;;;;;;;5.00;58.00;;;;;;5056513;28;19943;-69
2022/01/19 09:51:33;;;;;;;;;;;5.10;58.00;;;;;;5056246;28;19909;-69
2022/01/19 09:53:58;;;;;;;;;;;5.10;57.90;;;;;;5074406;28;19908;-69
2022/01/19 09:56:24;;;;;;;;;;;5.20;57.90;;;;;;5074361;28;19970;-69
2022/01/19 09:58:50;;;;;;;;;;;5.20;57.90;;;;;;5074065;28;19904;-69
2022/01/19 10:01:16;;;;;;;;;;;5.30;57.90;;;;;;5073990;28;19908;-68
2022/01/19 10:03:43;;;;;;;;;;;5.40;57.80;;;;;;5056154;28;19904;-69
2022/01/19 10:06:08;;;;;;;;;;;5.40;57.80;;;;;;5073914;28;19904;-69
2022/01/19 10:08:39;;;;;;;;;;;5.50;57.80;;;;;;5073804;28;19904;-69
2022/01/19 10:11:16;;;;;;;;;;;5.60;57.70;;;;;;5073967;28;19916;-69
2022/01/19 10:19:21;;;;;;;;;;;5.80;57.70;;;;;;5073749;28;19928;-69
2022/01/19 10:22:00;;;;;;;;;;;5.90;57.70;;;;;;5056032;28;20251;-69
2022/01/19 10:24:32;;;;;;;;;;;5.90;57.50;;;;;;5073654;28;19928;-69
2022/01/19 10:27:21;;;;;;;;;;;6.00;57.30;;;;;;5089565;28;19904;-70
2022/01/19 10:29:47;;;;;;;;;;;6.00;57.20;;;;;;5044911;28;19911;-67
2022/01/19 10:32:13;;;;;;;;;;;6.10;57.10;;;;;;5073666;28;19909;-68
2022/01/19 10:34:39;;;;;;;;;;;6.20;57.10;;;;;;5055772;28;20328;-68
2022/01/19 10:37:05;;;;;;;;;;;6.30;57.10;;;;;;5055764;28;19909;-68
2022/01/19 10:39:51;;;;;;;;;;;6.40;57.20;;;;;;5056044;28;19911;-68
2022/01/19 10:42:19;;;;;;;;;;;6.40;57.10;;;;;;5073930;28;19911;-68
2022/01/19 10:44:46;;;;;;;;;;;6.50;57.20;;;;;;5073630;28;19905;-68
2022/01/19 10:47:12;;;;;;;;;;;6.50;57.00;;;;;;5055605;28;20356;-68
2022/01/19 10:49:52;;;;;;;;;;;6.60;56.90;;;;;;5073546;28;19904;-68
2022/01/19 10:52:32;;;;;;;;;;;6.70;56.90;;;;;;5089072;28;19908;-68
2022/01/19 10:54:59;;;;;;;;;;;6.80;56.80;;;;;;5089069;28;19998;-68
2022/01/19 10:57:25;;;;;;;;;;;6.80;56.70;;;;;;5089029;28;19958;-68
2022/01/19 10:59:51;;;;;;;;;;;6.90;56.60;;;;;;5055594;28;19904;-68
2022/01/19 11:02:17;;;;;;;;;;;6.90;56.30;;;;;;5074165;28;19905;-68
2022/01/19 11:04:44;;;;;;;;;;;7.00;56.20;;;;;;5093166;28;19904;-68
2022/01/19 11:07:11;;;;;;;;;;;7.00;56.00;;;;;;5075882;28;19956;-68
2022/01/19 11:10:38;;;;;;;;;;;7.00;55.80;;;;;;5058925;28;19905;-68
2022/01/19 11:12:39;;;;;;;;;;;7.10;55.90;;;;;;5067913;28;19923;-68
2022/01/19 11:15:07;;;;;;;;;;;7.10;56.00;;;;;;5076961;28;19913;-67
2022/01/19 11:17:33;;;;;;;;;;;7.20;56.10;;;;;;5058274;28;20014;-68
2022/01/19 11:20:01;;;;;;;;;;;7.20;56.00;;;;;;5076331;28;20384;-71
2022/01/19 11:22:45;;;;;;;;;;;7.30;55.80;;;;;;5076552;28;19904;-68
2022/01/19 11:25:17;;;;;;;;;;;7.30;55.80;;;;;;5076881;28;19911;-68
2022/01/19 11:27:44;;;;;;;;;;;7.40;55.80;;;;;;5076541;28;19908;-69
2022/01/19 11:30:19;;;;;;;;;;;7.40;55.80;;;;;;5076222;28;19935;-68
2022/01/19 11:33:04;;;;;;;;;;;7.50;55.50;;;;;;5091929;28;20357;-68
2022/01/19 11:35:31;;;;;;;;;;;7.50;55.50;;;;;;5058372;28;20003;-71
2022/01/19 11:37:57;;;;;;;;;;;7.50;55.50;;;;;;5058308;28;19958;-68
2022/01/19 11:40:32;;;;;;;;;;;7.60;55.40;;;;;;5058378;28;19913;-69
2022/01/19 11:43:33;;;;;;;;;;;7.60;55.40;;;;;;5058458;28;19916;-70
2022/01/19 11:46:00;;;;;;;;;;;7.60;55.30;;;;;;4978286;28;19968;-68
2022/01/19 11:48:28;;;;;;;;;;;7.70;55.40;;;;;;4994303;28;19937;-68
2022/01/19 11:51:05;;;;;;;;;;;7.80;55.40;;;;;;4994635;28;20285;-68
2022/01/19 11:53:51;;;;;;;;;;;7.80;55.40;;;;;;4994453;28;20004;-68
2022/01/19 11:56:19;;;;;;;;;;;7.80;55.30;;;;;;4977998;28;19933;-65
2022/01/19 11:59:01;;;;;;;;;;;7.90;55.20;;;;;;4994507;28;20020;-68
2022/01/19 12:01:26;;;;;;;;;;;7.90;55.20;;;;;;4994594;28;19976;-69
2022/01/19 12:03:52;;;;;;;;;;;7.90;55.20;;;;;;4988807;28;19966;-68
2022/01/19 12:06:32;;;;;;;;;;;7.90;55.10;;;;;;4958550;28;19906;-69
2022/01/19 12:08:57;;;;;;;;;;;8.00;55.10;;;;;;4977547;28;19910;-69
2022/01/19 12:11:23;;;;;;;;;;;8.00;54.90;;;;;;4993921;28;19917;-70
2022/01/19 12:19:06;;;;;;;;;;;8.00;54.70;;;;;;4991898;28;20012;-68
2022/01/19 12:21:32;;;;;;;;;;;8.00;54.60;;;;;;5035620;28;20015;-67
2022/01/19 12:24:16;;;;;;;;;;;8.00;54.60;;;;;;5050622;28;20335;-67
2022/01/19 12:27:04;;;;;;;;;;;8.10;54.60;;;;;;5034468;28;21322;-67
2022/01/19 12:29:38;;;;;;;;;;;8.10;54.60;;;;;;5035706;28;19909;-67
2022/01/19 12:32:04;;;;;;;;;;;8.10;54.60;;;;;;5034732;28;20357;-67
2022/01/19 12:34:46;;;;;;;;;;;8.10;54.50;;;;;;5043209;28;19939;-68
2022/01/19 12:37:32;;;;;;;;;;;8.10;54.50;;;;;;5054542;28;19909;-68
2022/01/19 12:39:58;;;;;;;;;;;8.10;54.50;;;;;;5029271;28;20008;-69
2022/01/19 12:42:29;;;;;;;;;;;8.10;54.50;;;;;;5036867;28;19909;-68
2022/01/19 12:44:57;;;;;;;;;;;8.10;54.40;;;;;;5055340;28;19920;-68
2022/01/19 12:47:28;;;;;;;;;;;8.20;54.40;;;;;;5055568;28;19909;-69
2022/01/19 12:49:58;;;;;;;;;;;8.20;54.40;;;;;;5055402;28;20255;-69
2022/01/19 12:52:28;;;;;;;;;;;8.20;54.40;;;;;;5055445;28;19913;-68
2022/01/19 12:54:55;;;;;;;;;;;8.20;54.30;;;;;;5037425;28;19909;-68
2022/01/19 12:57:21;;;;;;;;;;;8.20;54.10;;;;;;5037553;28;19912;-68
2022/01/19 12:59:48;;;;;;;;;;;8.20;54.00;;;;;;5055384;28;20378;-68
2022/01/19 13:02:15;;;;;;;;;;;8.20;53.80;;;;;;5037236;28;19956;-69
2022/01/19 13:04:42;;;;;;;;;;;8.20;53.90;;;;;;5070516;28;19909;-66
2022/01/19 13:07:13;;;;;;;;;;;8.20;53.90;;;;;;5054900;28;19909;-67
2022/01/19 13:09:59;;;;;;;;;;;8.20;54.00;;;;;;5037095;28;19909;-67
2022/01/19 13:12:32;;;;;;;;;;;8.20;54.00;;;;;;5037100;28;19982;-66
2022/01/19 13:14:58;;;;;;;;;;;8.20;54.10;;;;;;5036997;28;19916;-67
2022/01/19 13:17:23;;;;;;;;;;;8.20;54.00;;;;;;5055020;28;19908;-67
2022/01/19 13:19:49;;;;;;;;;;;8.20;53.90;;;;;;5104587;28;19924;-67
2022/01/19 13:22:15;;;;;;;;;;;8.20;53.80;;;;;;5095418;28;19968;-67
2022/01/19 13:24:42;;;;;;;;;;;8.20;53.70;;;;;;5095146;28;19908;-67
2022/01/19 13:27:10;;;;;;;;;;;8.20;53.70;;;;;;5076689;28;19969;-67
2022/01/19 13:29:47;;;;;;;;;;;8.20;53.60;;;;;;5076812;28;19912;-67
2022/01/19 13:32:18;;;;;;;;;;;8.20;53.60;;;;;;5094946;28;19916;-67
2022/01/19 13:34:52;;;;;;;;;;;8.20;53.70;;;;;;5094725;28;19909;-67
2022/01/19 13:37:18;;;;;;;;;;;8.20;53.70;;;;;;5094866;28;19931;-66
2022/01/19 13:39:43;;;;;;;;;;;8.20;53.70;;;;;;5094613;28;20352;-68
2022/01/19 13:42:09;;;;;;;;;;;8.20;53.60;;;;;;5094913;28;19908;-68
2022/01/19 13:44:39;;;;;;;;;;;8.20;53.50;;;;;;5076525;28;19918;-68
2022/01/19 13:47:05;;;;;;;;;;;8.20;53.50;;;;;;5094468;28;20291;-67
2022/01/19 13:49:30;;;;;;;;;;;8.20;53.50;;;;;;5094681;28;19908;-68
2022/01/19 13:51:57;;;;;;;;;;;8.20;53.40;;;;;;5076380;28;19912;-68
2022/01/19 13:54:23;;;;;;;;;;;8.20;53.40;;;;;;5094336;28;19920;-68
2022/01/19 13:56:55;;;;;;;;;;;8.20;53.40;;;;;;5094607;28;19915;-68
2022/01/19 13:59:23;;;;;;;;;;;8.20;53.40;;;;;;5094480;28;19936;-67
2022/01/19 14:01:56;;;;;;;;;;;8.20;53.40;;;;;;5094206;28;20253;-67
2022/01/19 14:04:22;;;;;;;;;;;8.20;53.50;;;;;;5094460;28;19957;-68
2022/01/19 14:06:51;;;;;;;;;;;8.20;53.40;;;;;;5094292;28;19908;-67
2022/01/19 14:09:23;;;;;;;;;;;8.20;53.50;;;;;;5076128;28;19908;-68
2022/01/19 14:11:57;;;;;;;;;;;8.10;53.40;;;;;;5094217;28;19912;-68
2022/01/19 14:14:25;;;;;;;;;;;8.20;53.50;;;;;;5093913;28;20287;-68
2022/01/19 14:16:51;;;;;;;;;;;8.10;53.40;;;;;;5093999;28;19908;-67
2022/01/19 14:19:19;;;;;;;;;;;8.10;53.40;;;;;;5075442;28;20372;-68
2022/01/19 14:21:52;;;;;;;;;;;8.10;53.50;;;;;;5094465;28;19935;-68
2022/01/19 14:24:18;;;;;;;;;;;8.00;53.50;;;;;;5075878;28;20271;-68
2022/01/19 14:26:50;;;;;;;;;;;8.00;53.50;;;;;;5093702;28;19916;-68
2022/01/19 14:29:16;;;;;;;;;;;8.00;53.50;;;;;;5093958;28;19908;-68
2022/01/19 14:31:52;;;;;;;;;;;7.90;53.50;;;;;;5093869;28;20343;-68
2022/01/19 14:34:36;;;;;;;;;;;7.90;53.50;;;;;;5093640;28;20429;-68
2022/01/19 14:37:12;;;;;;;;;;;7.80;53.50;;;;;;5074582;28;19915;-68
2022/01/19 14:39:48;;;;;;;;;;;7.80;53.50;;;;;;5093590;28;20356;-68
2022/01/19 14:42:14;;;;;;;;;;;7.70;53.60;;;;;;5093760;28;19916;-68
2022/01/19 14:44:43;;;;;;;;;;;7.70;53.70;;;;;;5075697;28;19908;-68
2022/01/19 14:47:26;;;;;;;;;;;7.60;53.60;;;;;;5093473;28;19914;-68
2022/01/19 14:49:51;;;;;;;;;;;7.60;53.80;;;;;;5093778;28;19909;-68
2022/01/19 14:52:17;;;;;;;;;;;7.50;53.80;;;;;;5093422;28;19912;-68
2022/01/19 14:54:43;;;;;;;;;;;7.50;53.90;;;;;;5075849;28;19962;-69
2022/01/19 14:57:08;;;;;;;;;;;7.40;53.90;;;;;;5093675;28;19953;-68
2022/01/19 14:59:38;;;;;;;;;;;7.40;54.00;;;;;;5075574;28;19912;-68
2022/01/19 15:02:04;;;;;;;;;;;7.40;54.10;;;;;;5093322;28;19999;-68
2022/01/19 15:04:29;;;;;;;;;;;7.30;54.10;;;;;;5075765;28;19951;-68
2022/01/19 15:07:00;;;;;;;;;;;7.20;54.10;;;;;;5093550;28;20390;-68
2022/01/19 15:09:26;;;;;;;;;;;7.20;54.10;;;;;;5075434;28;19919;-68
2022/01/19 15:11:52;;;;;;;;;;;7.20;54.20;;;;;;5093421;28;20004;-68
2022/01/19 15:14:18;;;;;;;;;;;7.10;54.20;;;;;;5075368;28;20351;-68
2022/01/19 15:16:44;;;;;;;;;;;7.10;54.20;;;;;;5093393;28;19919;-68
2022/01/19 15:19:10;;;;;;;;;;;7.00;54.20;;;;;;5092750;28;19932;-69
2022/01/19 15:21:36;;;;;;;;;;;7.00;54.30;;;;;;5075342;28;19908;-68
2022/01/19 15:24:04;;;;;;;;;;;6.90;54.30;;;;;;5093345;28;19915;-68
2022/01/19 15:26:31;;;;;;;;;;;6.80;54.40;;;;;;5075107;28;19908;-68
2022/01/19 15:29:01;;;;;;;;;;;6.80;54.50;;;;;;5075170;28;19908;-67
2022/01/19 15:31:27;;;;;;;;;;;6.70;54.50;;;;;;5092875;28;19912;-67
2022/01/19 15:33:55;;;;;;;;;;;6.70;54.60;;;;;;5074946;28;19960;-67
2022/01/19 15:36:21;;;;;;;;;;;6.60;54.60;;;;;;5093385;28;19908;-67
2022/01/19 15:38:48;;;;;;;;;;;6.50;54.60;;;;;;5074790;28;19909;-67
2022/01/19 15:41:14;;;;;;;;;;;6.50;54.70;;;;;;5075074;28;19912;-67
2022/01/19 15:43:40;;;;;;;;;;;6.50;54.80;;;;;;5075078;28;19914;-66
2022/01/19 15:46:08;;;;;;;;;;;6.40;54.70;;;;;;5075083;28;20007;-68
2022/01/19 15:48:34;;;;;;;;;;;6.30;54.70;;;;;;5075759;28;19908;-68
2022/01/19 15:50:59;;;;;;;;;;;6.30;54.80;;;;;;5078489;28;19981;-67
2022/01/19 15:53:26;;;;;;;;;;;6.20;54.80;;;;;;5096618;28;19916;-68
2022/01/19 15:55:55;;;;;;;;;;;6.10;54.90;;;;;;5096713;28;20268;-67
2022/01/19 15:58:21;;;;;;;;;;;6.10;55.00;;;;;;5096922;28;19908;-67
2022/01/19 16:00:48;;;;;;;;;;;6.00;55.10;;;;;;5078511;28;19915;-67
2022/01/19 16:03:14;;;;;;;;;;;5.90;55.10;;;;;;5078227;28;19912;-68
2022/01/19 16:05:40;;;;;;;;;;;5.90;55.10;;;;;;5096700;28;20260;-68
2022/01/19 16:08:06;;;;;;;;;;;5.90;55.20;;;;;;5096639;28;19912;-67
2022/01/19 16:10:33;;;;;;;;;;;5.80;55.30;;;;;;5096547;28;19912;-67